createdAt,value
2022-11-29T00:00:31.370Z,101355.66
2022-11-29T00:02:58.154Z,101352.97
2022-11-29T00:05:25.079Z,101357.50
2022-11-29T00:07:51.708Z,101362.00
2022-11-29T00:10:18.538Z,101351.38
2022-11-29T00:12:47.909Z,101363.91
2022-11-29T00:15:14.742Z,101355.00
2022-11-29T00:17:41.326Z,101363.16
2022-11-29T00:20:08.968Z,101361.31
2022-11-29T00:22:35.650Z,101356.06
2022-11-29T00:25:02.272Z,101357.81
2022-11-29T00:27:28.839Z,101356.94
2022-11-29T00:29:56.932Z,101352.44
2022-11-29T00:32:26.418Z,101356.06
2022-11-29T00:34:53.051Z,101360.56
2022-11-29T00:37:19.690Z,101360.56
2022-11-29T00:39:46.261Z,101364.13
2022-11-29T00:42:12.881Z,101365.94
2022-11-29T00:44:39.453Z,101358.75
2022-11-29T00:47:07.486Z,101361.44
2022-11-29T00:49:34.172Z,101356.16
2022-11-29T00:52:00.880Z,101352.63
2022-11-29T00:54:27.711Z,101356.06
2022-11-29T00:56:54.363Z,101362.38
2022-11-29T00:59:21.209Z,101366.78
2022-11-29T01:01:47.927Z,101359.72
2022-11-29T01:04:15.902Z,101359.72
2022-11-29T01:06:42.458Z,101362.38
2022-11-29T01:09:09.120Z,101367.66
2022-11-29T01:11:35.862Z,101359.63
2022-11-29T01:14:03.055Z,101365.94
2022-11-29T01:16:30.712Z,101362.38
2022-11-29T01:18:57.363Z,101360.66
2022-11-29T01:21:25.524Z,101357.88
2022-11-29T01:23:53.365Z,101359.72
2022-11-29T01:26:22.474Z,101357.97
2022-11-29T01:28:50.793Z,101359.72
2022-11-29T01:31:19.384Z,101362.38
2022-11-29T01:33:46.326Z,101367.75
2022-11-29T01:36:13.992Z,101367.75
2022-11-29T01:38:41.947Z,101365.06
2022-11-29T01:41:12.225Z,101363.34
2022-11-29T01:43:54.815Z,101363.25
2022-11-29T01:46:21.478Z,101356.06
2022-11-29T01:48:49.086Z,101355.22
2022-11-29T01:51:17.139Z,101354.34
2022-11-29T01:53:45.346Z,101354.34
2022-11-29T01:56:14.657Z,101352.53
2022-11-29T01:58:42.364Z,101358.75
2022-11-29T02:01:09.281Z,101363.16
2022-11-29T02:03:35.965Z,101359.50
2022-11-29T02:06:03.369Z,101359.50
2022-11-29T02:08:34.087Z,101357.69
2022-11-29T02:11:26.419Z,101353.19
2022-11-29T02:14:04.233Z,101359.41
2022-11-29T02:16:37.755Z,101361.13
2022-11-29T02:19:24.430Z,101361.00
2022-11-29T02:21:57.026Z,101367.22
2022-11-29T02:24:56.552Z,101364.53
2022-11-29T02:27:52.814Z,101374.31
2022-11-29T02:30:36.825Z,101373.34
2022-11-29T02:33:27.944Z,101374.22
2022-11-29T02:36:18.962Z,101374.97
2022-11-29T02:39:04.337Z,101377.75
2022-11-29T02:41:47.287Z,101377.63
2022-11-29T02:44:35.816Z,101378.59
2022-11-29T02:47:18.699Z,101375.81
2022-11-29T02:50:06.968Z,101375.91
2022-11-29T02:52:41.948Z,101372.28
2022-11-29T02:55:15.952Z,101371.34
2022-11-29T02:57:50.216Z,101380.16
2022-11-29T03:00:19.883Z,101381.09
2022-11-29T03:02:53.152Z,101377.56
2022-11-29T03:05:24.776Z,101379.28
2022-11-29T03:07:59.455Z,101380.97
2022-11-29T03:10:33.644Z,101379.28
2022-11-29T03:13:04.755Z,101377.47
2022-11-29T03:15:34.042Z,101387.31
2022-11-29T03:18:14.204Z,101385.59
2022-11-29T03:20:55.196Z,101382.91
2022-11-29T03:23:25.768Z,101383.78
2022-11-29T03:25:58.002Z,101386.53
2022-11-29T03:28:31.016Z,101394.50
2022-11-29T03:31:05.205Z,101400.72
2022-11-29T03:33:38.870Z,101401.59
2022-11-29T03:36:15.066Z,101403.28
2022-11-29T03:38:43.525Z,101402.53
2022-11-29T03:41:23.731Z,101400.81
2022-11-29T03:43:56.716Z,101409.72
2022-11-29T03:46:31.886Z,101413.34
2022-11-29T03:49:03.202Z,101405.38
2022-11-29T03:51:42.872Z,101409.72
2022-11-29T03:54:11.656Z,101402.63
2022-11-29T03:56:40.412Z,101405.22
2022-11-29T03:59:23.121Z,101409.78
2022-11-29T04:02:08.512Z,101409.78
2022-11-29T04:05:11.379Z,101406.38
2022-11-29T04:08:26.961Z,101412.47
2022-11-29T04:11:28.445Z,101403.69
2022-11-29T04:14:21.639Z,101408.19
2022-11-29T04:17:17.345Z,101409.06
2022-11-29T04:20:23.938Z,101409.06
2022-11-29T04:23:17.720Z,101413.63
2022-11-29T04:26:07.371Z,101412.69
2022-11-29T04:28:59.131Z,101419.00
2022-11-29T04:31:37.872Z,101411.81
2022-11-29T04:34:21.078Z,101414.59
2022-11-29T04:37:24.235Z,101415.47
2022-11-29T04:40:25.686Z,101416.31
2022-11-29T04:43:09.457Z,101419.00
2022-11-29T04:46:04.260Z,101418.91
2022-11-29T04:48:51.160Z,101419.00
2022-11-29T04:51:29.343Z,101411.91
2022-11-29T04:54:07.623Z,101419.94
2022-11-29T04:56:42.679Z,101421.81
2022-11-29T04:59:18.301Z,101415.47
2022-11-29T05:01:58.354Z,101423.63
2022-11-29T05:04:31.788Z,101421.88
2022-11-29T05:07:01.738Z,101430.00
2022-11-29T05:09:37.694Z,101432.81
2022-11-29T05:12:14.286Z,101430.97
2022-11-29T05:15:02.910Z,101426.47
2022-11-29T05:17:42.097Z,101437.19
2022-11-29T05:20:21.463Z,101434.50
2022-11-29T05:23:04.319Z,101438.91
2022-11-29T05:25:43.980Z,101445.22
2022-11-29T05:28:18.555Z,101449.63
2022-11-29T05:31:09.371Z,101448.69
2022-11-29T05:34:05.718Z,101446.88
2022-11-29T05:36:39.334Z,101450.41
2022-11-29T05:39:29.234Z,101456.72
2022-11-29T05:42:11.937Z,101461.31
2022-11-29T05:44:45.023Z,101465.91
2022-11-29T05:47:20.714Z,101459.69
2022-11-29T05:50:00.738Z,101463.22
2022-11-29T05:52:39.413Z,101468.59
2022-11-29T05:55:19.264Z,101464.09
2022-11-29T05:57:55.592Z,101468.59
2022-11-29T06:00:23.037Z,101476.50
2022-11-29T06:02:58.763Z,101479.19
2022-11-29T06:05:32.403Z,101482.72
2022-11-29T06:08:05.098Z,101482.72
2022-11-29T06:10:36.552Z,101485.41
2022-11-29T06:13:13.352Z,101489.06
2022-11-29T06:16:18.728Z,101490.88
2022-11-29T06:19:11.581Z,101498.81
2022-11-29T06:21:45.998Z,101494.31
2022-11-29T06:24:37.741Z,101502.28
2022-11-29T06:27:36.813Z,101496.03
2022-11-29T06:30:08.598Z,101504.16
2022-11-29T06:32:44.273Z,101502.47
2022-11-29T06:35:32.141Z,101510.59
2022-11-29T06:38:03.661Z,101518.72
2022-11-29T06:40:30.865Z,101515.16
2022-11-29T06:42:57.632Z,101520.66
2022-11-29T06:45:24.888Z,101524.28
2022-11-29T06:47:58.033Z,101528.78
2022-11-29T06:50:38.384Z,101527.91
2022-11-29T06:53:16.894Z,101528.69
2022-11-29T06:55:53.786Z,101534.03
2022-11-29T06:58:36.186Z,101533.06
2022-11-29T07:01:10.057Z,101531.38
2022-11-29T07:03:53.759Z,101540.34
2022-11-29T07:06:22.868Z,101527.03
2022-11-29T07:08:53.703Z,101529.72
2022-11-29T07:11:21.217Z,101535.19
2022-11-29T07:13:48.329Z,101536.22
2022-11-29T07:16:21.276Z,101543.22
2022-11-29T07:18:57.072Z,101539.56
2022-11-29T07:21:38.845Z,101540.44
2022-11-29T07:24:16.350Z,101539.50
2022-11-29T07:26:55.161Z,101543.03
2022-11-29T07:29:35.216Z,101547.44
2022-11-29T07:32:11.962Z,101547.31
2022-11-29T07:34:49.558Z,101548.97
2022-11-29T07:37:23.993Z,101550.69
2022-11-29T07:39:59.421Z,101557.75
2022-11-29T07:42:35.635Z,101555.84
2022-11-29T07:45:13.418Z,101552.03
2022-11-29T07:47:40.031Z,101557.19
2022-11-29T07:50:07.794Z,101559.78
2022-11-29T07:52:35.913Z,101563.13
2022-11-29T07:55:02.675Z,101561.22
2022-11-29T07:57:29.269Z,101563.78
2022-11-29T07:59:55.832Z,101568.09
2022-11-29T08:02:29.818Z,101566.94
2022-11-29T08:04:56.722Z,101569.50
2022-11-29T08:07:23.504Z,101560.50
2022-11-29T08:09:51.601Z,101577.47
2022-11-29T08:12:18.493Z,101580.22
2022-11-29T08:14:45.486Z,101580.13
2022-11-29T08:17:12.294Z,101580.06
2022-11-29T08:19:38.861Z,101579.94
2022-11-29T08:22:05.468Z,101583.38
2022-11-29T08:24:32.039Z,101588.66
2022-11-29T08:26:59.990Z,101583.31
2022-11-29T08:29:26.619Z,101580.50
2022-11-29T08:31:54.212Z,101584.06
2022-11-29T08:34:21.774Z,101585.66
2022-11-29T08:36:48.717Z,101580.13
2022-11-29T08:39:15.298Z,101583.56
2022-11-29T08:41:41.948Z,101583.38
2022-11-29T08:44:10.131Z,101584.13
2022-11-29T08:46:36.723Z,101586.81
2022-11-29T08:49:03.318Z,101585.00
2022-11-29T08:51:30.556Z,101591.97
2022-11-29T08:53:57.135Z,101590.91
2022-11-29T08:57:10.012Z,101590.72
2022-11-29T08:59:11.926Z,101600.56
2022-11-29T09:01:38.716Z,101602.31
2022-11-29T09:04:05.585Z,101600.41
2022-11-29T09:06:36.814Z,101600.41
2022-11-29T09:09:04.461Z,101598.47
2022-11-29T09:11:33.858Z,101606.31
2022-11-29T09:14:03.479Z,101605.34
2022-11-29T09:16:35.035Z,101609.75
2022-11-29T09:19:01.856Z,101615.91
2022-11-29T09:21:30.340Z,101606.78
2022-11-29T09:23:59.325Z,101620.09
2022-11-29T09:26:28.171Z,101619.91
2022-11-29T09:28:55.232Z,101610.91
2022-11-29T09:31:22.080Z,101616.91
2022-11-29T09:33:50.082Z,101618.66
2022-11-29T09:36:16.844Z,101625.72
2022-11-29T09:38:43.459Z,101623.88
2022-11-29T09:41:27.736Z,101618.53
2022-11-29T09:44:03.870Z,101621.97
2022-11-29T09:46:38.728Z,101617.47
2022-11-29T09:49:26.909Z,101616.41
2022-11-29T09:51:59.245Z,101620.59
2022-11-29T09:54:35.085Z,101617.72
2022-11-29T09:57:10.375Z,101616.75
2022-11-29T09:59:41.787Z,101613.91
2022-11-29T10:02:21.113Z,101620.88
2022-11-29T10:04:56.360Z,101616.16
2022-11-29T10:07:28.552Z,101616.94
2022-11-29T10:10:00.635Z,101625.53
2022-11-29T10:12:35.779Z,101619.09
2022-11-29T10:15:06.634Z,101629.63
2022-11-29T10:17:37.302Z,101630.41
2022-11-29T10:20:12.794Z,101629.31
2022-11-29T10:22:45.441Z,101628.38
2022-11-29T10:25:20.030Z,101627.28
2022-11-29T10:27:46.680Z,101634.28
2022-11-29T10:30:14.650Z,101633.38
2022-11-29T10:32:43.981Z,101628.00
2022-11-29T10:35:16.231Z,101633.38
2022-11-29T10:37:56.351Z,101632.56
2022-11-29T10:40:33.428Z,101639.56
2022-11-29T10:43:01.253Z,101635.94
2022-11-29T10:45:30.230Z,101636.69
2022-11-29T10:48:01.840Z,101631.34
2022-11-29T10:50:32.304Z,101634.88
2022-11-29T10:53:04.147Z,101634.00
2022-11-29T10:55:38.553Z,101638.31
2022-11-29T10:58:14.546Z,101637.34
2022-11-29T11:00:46.600Z,101633.59
2022-11-29T11:03:16.432Z,101635.22
2022-11-29T11:05:56.529Z,101634.25
2022-11-29T11:08:24.967Z,101627.03
2022-11-29T11:10:55.379Z,101631.44
2022-11-29T11:13:27.135Z,101631.28
2022-11-29T11:15:58.728Z,101632.00
2022-11-29T11:18:26.949Z,101631.78
2022-11-29T11:20:58.357Z,101641.56
2022-11-29T11:23:27.205Z,101629.97
2022-11-29T11:26:00.318Z,101638.88
2022-11-29T11:28:30.151Z,101635.16
2022-11-29T11:30:59.116Z,101627.84
2022-11-29T11:33:28.382Z,101633.22
2022-11-29T11:36:08.701Z,101643.00
2022-11-29T11:38:37.994Z,101637.50
2022-11-29T11:41:15.283Z,101638.28
2022-11-29T11:43:42.150Z,101645.38
2022-11-29T11:46:10.139Z,101641.59
2022-11-29T11:48:40.830Z,101641.59
2022-11-29T11:51:20.455Z,101642.47
2022-11-29T11:53:51.039Z,101641.59
2022-11-29T11:56:18.327Z,101640.66
2022-11-29T11:58:49.715Z,101645.16
2022-11-29T12:01:25.234Z,101641.50
2022-11-29T12:03:58.823Z,101640.56
2022-11-29T12:06:49.185Z,101637.97
2022-11-29T12:09:37.425Z,101637.09
2022-11-29T12:12:11.395Z,101643.56
2022-11-29T12:14:47.922Z,101638.19
2022-11-29T12:17:22.482Z,101648.91
2022-11-29T12:20:03.086Z,101649.88
2022-11-29T12:22:45.153Z,101652.56
2022-11-29T12:25:18.445Z,101668.78
2022-11-29T12:27:45.202Z,101666.31
2022-11-29T12:30:13.696Z,101667.38
2022-11-29T12:32:53.367Z,101668.44
2022-11-29T12:35:41.683Z,101668.53
2022-11-29T12:38:20.213Z,101668.53
2022-11-29T12:40:57.560Z,101674.69
2022-11-29T12:43:34.922Z,101677.38
2022-11-29T12:46:10.360Z,101677.28
2022-11-29T12:48:45.694Z,101678.97
2022-11-29T12:51:22.633Z,101679.19
2022-11-29T12:54:04.760Z,101677.66
2022-11-29T12:56:37.664Z,101674.97
2022-11-29T12:59:19.894Z,101690.16
2022-11-29T13:02:03.098Z,101687.47
2022-11-29T13:04:38.827Z,101696.56
2022-11-29T13:07:15.789Z,101694.88
2022-11-29T13:09:57.029Z,101701.94
2022-11-29T13:12:32.999Z,101699.25
2022-11-29T13:15:05.223Z,101699.16
2022-11-29T13:17:43.583Z,101694.66
2022-11-29T13:20:22.898Z,101702.63
2022-11-29T13:22:56.078Z,101698.94
2022-11-29T13:25:28.518Z,101703.34
2022-11-29T13:27:59.870Z,101706.03
2022-11-29T13:30:26.524Z,101704.44
2022-11-29T13:32:59.865Z,101704.44
2022-11-29T13:35:36.802Z,101705.41
2022-11-29T13:38:09.970Z,101703.66
2022-11-29T13:40:44.048Z,101706.34
2022-11-29T13:43:20.174Z,101709.91
2022-11-29T13:45:53.930Z,101710.00
2022-11-29T13:48:31.685Z,101720.84
2022-11-29T13:50:59.021Z,101714.72
2022-11-29T13:53:46.839Z,101715.00
2022-11-29T13:56:27.781Z,101717.81
2022-11-29T13:58:54.833Z,101717.91
2022-11-29T14:01:22.323Z,101722.50
2022-11-29T14:04:04.601Z,101722.50
2022-11-29T14:06:35.951Z,101725.31
2022-11-29T14:09:23.306Z,101724.66
2022-11-29T14:12:01.671Z,101722.13
2022-11-29T14:14:32.757Z,101730.16
2022-11-29T14:17:02.092Z,101727.59
2022-11-29T14:19:33.804Z,101728.47
2022-11-29T14:22:21.097Z,101726.75
2022-11-29T14:25:00.596Z,101739.22
2022-11-29T14:28:03.874Z,101731.34
2022-11-29T14:30:46.558Z,101735.97
2022-11-29T14:33:23.798Z,101740.47
2022-11-29T14:36:04.263Z,101742.28
2022-11-29T14:38:42.492Z,101739.59
2022-11-29T14:41:22.335Z,101748.50
2022-11-29T14:43:50.860Z,101739.81
2022-11-29T14:46:29.270Z,101743.44
2022-11-29T14:49:01.586Z,101747.00
2022-11-29T14:51:30.732Z,101743.44
2022-11-29T14:54:12.630Z,101746.22
2022-11-29T14:56:40.046Z,101749.03
2022-11-29T14:59:46.538Z,101754.38
2022-11-29T15:02:30.270Z,101747.38
2022-11-29T15:04:57.096Z,101754.56
2022-11-29T15:07:28.152Z,101759.94
2022-11-29T15:09:59.271Z,101758.97
2022-11-29T15:12:29.998Z,101763.41
2022-11-29T15:15:09.964Z,101758.91
2022-11-29T15:17:47.387Z,101760.78
2022-11-29T15:20:31.012Z,101765.50
2022-11-29T15:22:58.589Z,101766.47
2022-11-29T15:25:27.288Z,101767.31
2022-11-29T15:27:55.978Z,101770.00
2022-11-29T15:30:33.256Z,101771.94
2022-11-29T15:33:01.750Z,101775.56
2022-11-29T15:35:29.310Z,101776.44
2022-11-29T15:37:56.322Z,101779.22
2022-11-29T15:40:24.682Z,101786.41
2022-11-29T15:42:55.138Z,101786.31
2022-11-29T15:45:27.360Z,101789.09
2022-11-29T15:48:09.471Z,101787.34
2022-11-29T15:50:36.742Z,101790.91
2022-11-29T15:53:08.719Z,101786.41
2022-11-29T15:55:35.556Z,101787.34
2022-11-29T15:58:08.787Z,101792.72
2022-11-29T16:00:36.243Z,101801.63
2022-11-29T16:03:07.468Z,101801.56
2022-11-29T16:05:36.871Z,101810.34
2022-11-29T16:08:07.439Z,101807.59
2022-11-29T16:10:36.550Z,101812.09
2022-11-29T16:13:06.291Z,101810.34
2022-11-29T16:15:35.606Z,101818.53
2022-11-29T16:18:05.640Z,101817.66
2022-11-29T16:20:32.418Z,101816.00
2022-11-29T16:23:04.700Z,101826.00
2022-11-29T16:25:37.416Z,101825.31
2022-11-29T16:28:04.648Z,101830.88
2022-11-29T16:30:32.422Z,101829.25
2022-11-29T16:33:01.420Z,101823.88
2022-11-29T16:35:31.165Z,101833.75
2022-11-29T16:37:57.731Z,101832.13
2022-11-29T16:40:27.256Z,101830.31
2022-11-29T16:43:06.879Z,101836.44
2022-11-29T16:45:35.058Z,101830.19
2022-11-29T16:48:02.773Z,101842.66
2022-11-29T16:50:32.477Z,101831.06
2022-11-29T16:53:32.871Z,101839.03
2022-11-29T16:55:59.522Z,101838.91
2022-11-29T16:58:26.616Z,101837.97
2022-11-29T17:00:53.291Z,101841.44
2022-11-29T17:03:19.914Z,101832.41
2022-11-29T17:05:47.931Z,101843.91
2022-11-29T17:08:14.673Z,101843.13
2022-11-29T17:10:41.317Z,101841.44
2022-11-29T17:13:09.223Z,101842.28
2022-11-29T17:15:35.762Z,101844.88
2022-11-29T17:18:02.460Z,101845.81
2022-11-29T17:20:29.021Z,101844.13
2022-11-29T17:22:57.088Z,101847.56
2022-11-29T17:25:23.676Z,101851.88
2022-11-29T17:27:50.230Z,101848.34
2022-11-29T17:30:17.207Z,101850.06
2022-11-29T17:32:43.889Z,101851.88
2022-11-29T17:35:10.474Z,101853.69
2022-11-29T17:37:37.015Z,101846.59
2022-11-29T17:40:06.125Z,101851.09
2022-11-29T17:42:32.696Z,101850.22
2022-11-29T17:44:59.261Z,101853.88
2022-11-29T17:47:25.865Z,101852.16
2022-11-29T17:49:52.421Z,101859.22
2022-11-29T17:52:18.981Z,101864.59
2022-11-29T17:54:45.598Z,101865.47
2022-11-29T17:57:13.628Z,101866.34
2022-11-29T17:59:40.240Z,101866.34
2022-11-29T18:02:06.985Z,101877.94
2022-11-29T18:04:33.574Z,101869.97
2022-11-29T18:07:00.208Z,101871.91
2022-11-29T18:09:26.936Z,101867.47
2022-11-29T18:11:53.461Z,101878.13
2022-11-29T18:14:23.107Z,101883.38
2022-11-29T18:16:50.138Z,101880.69
2022-11-29T18:19:18.437Z,101876.19
2022-11-29T18:21:45.406Z,101885.13
2022-11-29T18:24:12.018Z,101891.28
2022-11-29T18:26:39.298Z,101888.47
2022-11-29T18:29:07.361Z,101892.88
2022-11-29T18:31:37.205Z,101893.00
2022-11-29T18:34:04.970Z,101891.28
2022-11-29T18:36:34.786Z,101896.63
2022-11-29T18:39:03.689Z,101898.53
2022-11-29T18:41:31.101Z,101888.66
2022-11-29T18:43:59.790Z,101900.28
2022-11-29T18:46:27.931Z,101893.00
2022-11-29T18:48:55.927Z,101896.44
2022-11-29T18:51:22.544Z,101896.34
2022-11-29T18:53:49.067Z,101898.19
2022-11-29T18:56:18.189Z,101895.50
2022-11-29T18:58:46.255Z,101896.34
2022-11-29T19:01:14.705Z,101908.91
2022-11-29T19:03:43.182Z,101895.56
2022-11-29T19:06:13.288Z,101898.19
2022-11-29T19:08:40.414Z,101898.19
2022-11-29T19:11:07.473Z,101899.91
2022-11-29T19:13:34.868Z,101905.28
2022-11-29T19:16:02.202Z,101903.47
2022-11-29T19:18:28.789Z,101902.47
2022-11-29T19:21:03.603Z,101897.97
2022-11-29T19:23:31.893Z,101904.22
2022-11-29T19:26:02.197Z,101905.06
2022-11-29T19:28:28.886Z,101902.31
2022-11-29T19:30:55.866Z,101904.88
2022-11-29T19:33:22.518Z,101902.19
2022-11-29T19:35:49.091Z,101903.06
2022-11-29T19:38:15.774Z,101903.16
2022-11-29T19:40:43.757Z,101902.31
2022-11-29T19:43:10.354Z,101902.31
2022-11-29T19:45:39.006Z,101906.81
2022-11-29T19:48:05.824Z,101903.25
2022-11-29T19:50:32.581Z,101906.81
2022-11-29T19:52:59.088Z,101906.81
2022-11-29T19:55:25.666Z,101904.13
2022-11-29T19:57:55.162Z,101905.94
2022-11-29T20:00:22.122Z,101902.31
2022-11-29T20:02:48.695Z,101906.81
2022-11-29T20:05:15.312Z,101910.25
2022-11-29T20:07:41.941Z,101904.88
2022-11-29T20:10:09.325Z,101912.94
2022-11-29T20:12:35.887Z,101925.41
2022-11-29T20:15:05.103Z,101921.84
2022-11-29T20:17:31.716Z,101927.13
2022-11-29T20:19:58.332Z,101922.72
2022-11-29T20:22:24.940Z,101918.97
2022-11-29T20:24:51.533Z,101919.84
2022-11-29T20:27:18.216Z,101921.56
2022-11-29T20:29:45.023Z,101918.03
2022-11-29T20:32:13.281Z,101923.38
2022-11-29T20:34:40.488Z,101921.56
2022-11-29T20:37:21.791Z,101929.63
2022-11-29T20:39:53.174Z,101919.75
2022-11-29T20:42:49.465Z,101924.06
2022-11-29T20:45:16.775Z,101926.75
2022-11-29T20:47:50.372Z,101926.75
2022-11-29T20:50:23.218Z,101939.28
2022-11-29T20:53:00.181Z,101929.44
2022-11-29T20:55:26.776Z,101940.16
2022-11-29T20:57:53.438Z,101942.84
2022-11-29T21:00:21.066Z,101944.59
2022-11-29T21:02:49.185Z,101942.69
2022-11-29T21:05:15.936Z,101944.50
2022-11-29T21:07:42.537Z,101949.00
2022-11-29T21:10:10.041Z,101945.38
2022-11-29T21:12:37.139Z,101951.69
2022-11-29T21:15:04.708Z,101956.19
2022-11-29T21:17:33.900Z,101946.31
2022-11-29T21:20:02.832Z,101957.13
2022-11-29T21:22:38.398Z,101951.69
2022-11-29T21:25:12.512Z,101952.63
2022-11-29T21:27:39.680Z,101958.97
2022-11-29T21:30:13.937Z,101957.13
2022-11-29T21:32:41.443Z,101962.50
2022-11-29T21:35:09.649Z,101962.50
2022-11-29T21:37:36.290Z,101961.56
2022-11-29T21:40:03.656Z,101964.16
2022-11-29T21:42:30.263Z,101970.47
2022-11-29T21:44:56.881Z,101964.25
2022-11-29T21:47:23.426Z,101972.31
2022-11-29T21:49:50.047Z,101963.38
2022-11-29T21:52:22.428Z,101966.06
2022-11-29T21:54:49.764Z,101973.16
2022-11-29T21:57:16.474Z,101976.81
2022-11-29T21:59:43.189Z,101973.16
2022-11-29T22:02:09.994Z,101968.75
2022-11-29T22:04:36.721Z,101972.31
2022-11-29T22:07:03.313Z,101972.38
2022-11-29T22:09:31.333Z,101976.06
2022-11-29T22:11:57.912Z,101968.00
2022-11-29T22:14:24.574Z,101963.56
2022-11-29T22:16:53.069Z,101972.38
2022-11-29T22:19:21.977Z,101973.25
2022-11-29T22:21:49.818Z,101973.25
2022-11-29T22:24:18.611Z,101971.34
2022-11-29T22:26:47.099Z,101973.09
2022-11-29T22:29:14.460Z,101975.66
2022-11-29T22:31:41.658Z,101974.72
2022-11-29T22:34:08.601Z,101981.81
2022-11-29T22:36:35.769Z,101976.44
2022-11-29T22:39:03.298Z,101981.81
2022-11-29T22:41:31.124Z,101983.72
2022-11-29T22:43:59.182Z,101979.28
2022-11-29T22:46:27.070Z,101982.09
2022-11-29T22:48:55.447Z,101982.16
2022-11-29T22:51:24.012Z,101984.84
2022-11-29T22:53:51.902Z,101988.50
2022-11-29T22:56:19.257Z,101988.50
2022-11-29T22:58:46.821Z,101992.16
2022-11-29T23:01:16.454Z,101992.16
2022-11-29T23:03:44.910Z,101998.47
2022-11-29T23:06:13.510Z,101997.53
2022-11-29T23:08:41.760Z,101991.28
2022-11-29T23:11:11.517Z,101997.53
2022-11-29T23:13:40.259Z,101997.41
2022-11-29T23:16:08.981Z,102001.16
2022-11-29T23:18:37.270Z,101993.97
2022-11-29T23:21:05.819Z,101995.78
2022-11-29T23:23:32.756Z,101992.31
2022-11-29T23:26:00.067Z,101994.06
2022-11-29T23:28:27.993Z,101993.19
2022-11-29T23:30:54.802Z,101995.13
2022-11-29T23:33:21.592Z,101993.38
2022-11-29T23:35:50.359Z,101992.44
2022-11-29T23:38:18.016Z,101985.25
2022-11-29T23:40:44.567Z,101981.69
2022-11-29T23:43:11.246Z,101987.94
2022-11-29T23:45:38.702Z,101979.88
2022-11-29T23:48:05.804Z,101978.16
2022-11-29T23:50:32.387Z,101985.25
2022-11-29T23:53:00.372Z,101995.00
2022-11-29T23:55:27.242Z,101980.81
2022-11-29T23:57:53.812Z,101987.16
